Terminal Aerodrome Forecast
Issued by NWS Nashville, TN

Current Version | Previous Version | Text Only | Print | Product List | Glossary On
Versions: 1 2 3 4 5 6 7 8 9 10 11 12 13 14 15 16 17 18 19 20 21
624
FTUS44 KOHX 291128
TAFBNA
TAF
KBNA 291128Z 2912/3012 20003KT P6SM OVC015
     FM291600 23006KT P6SM BKN040
     FM291900 22005KT P6SM VCTS BKN050CB
     FM292300 21003KT P6SM BKN100
     FM300900 21003KT P6SM SCT015 OVC021=

USA.gov is the U.S. government's official web portal to all federal, state and local government web resources and services.